KSVH/SVH METAR and TAF weather

Enter ICAO airport designator
Station Type Date Time Source
KSVH METAR 2019/08/23 15:55 UTC NOAA

KSVH 231555Z AUTO 24004KT 10SM CLR 26/22 A3005 RMK AO2 T02620221


Station Type Date Time Source
KSVH Decoded METAR 2019/08/23 15:55 UTC NOAA

Station name not available
Aug 23, 2019 - 11:55 AM EDT / 2019.08.23 1555 UTC
Wind: from the WSW (240 degrees) at 5 MPH (4 KT):0
Visibility: 10 mile(s):0
Sky conditions: clear
Temperature: 79.2 F (26.2 C)
Dew Point: 71.8 F (22.1 C)
Relative Humidity: 78%
Pressure (altimeter): 30.05 in. Hg (1017 hPa)
ob: KSVH 231555Z AUTO 24004KT 10SM CLR 26/22 A3005 RMK AO2 T02620221
cycle: 16

Station Type Date Time Source
KSVH TAF UTC NOAA

Error!

Example: see airport list